Time;durP1;ratioP1;P1;durP2;ratioP2;P2;SDS_P1;SDS_P2;PMS_P1;PMS_P2;Temp;Humidity;BMP_temperature;BMP_pressure;BME280_temperature;BME280_humidity;BME280_pressure;Samples;Min_cycle;Max_cycle;Signal;HPM_P1;HPM_P2
2024/01/09 00:01:31;;;;;;;4.55;2.03;;;-2.20;99.90;;;;;;5073388;28;20496;-78
2024/01/09 00:03:56;;;;;;;5.65;2.05;;;-2.20;99.90;;;;;;5073315;28;20053;-81
2024/01/09 00:06:22;;;;;;;8.93;2.42;;;-2.20;99.90;;;;;;5074833;28;20083;-81
2024/01/09 00:08:48;;;;;;;4.03;2.15;;;-2.20;99.90;;;;;;5074569;28;20517;-79
2024/01/09 00:11:14;;;;;;;6.80;2.38;;;-2.20;99.90;;;;;;5074666;28;20059;-82
2024/01/09 00:13:41;;;;;;;6.78;1.98;;;-2.20;99.90;;;;;;5074906;28;20059;-74
2024/01/09 00:16:07;;;;;;;9.30;2.42;;;-2.20;99.90;;;;;;5074548;28;20052;-79
2024/01/09 00:18:32;;;;;;;5.75;2.10;;;-2.30;99.90;;;;;;5056253;28;20048;-81
2024/01/09 00:20:58;;;;;;;10.57;4.65;;;-2.30;99.90;;;;;;5074608;28;20048;-78
2024/01/09 00:23:24;;;;;;;4.88;2.15;;;-2.30;99.90;;;;;;5074417;28;20070;-75
2024/01/09 00:25:50;;;;;;;6.18;2.22;;;-2.30;99.90;;;;;;5073233;28;20143;-80
2024/01/09 00:28:15;;;;;;;5.15;1.90;;;-2.30;99.90;;;;;;5056414;28;20139;-80
2024/01/09 00:30:41;;;;;;;6.68;2.55;;;-2.30;99.90;;;;;;5074395;28;20552;-81
2024/01/09 00:33:07;;;;;;;6.65;1.92;;;-2.40;99.90;;;;;;5073841;28;20057;-81
2024/01/09 00:35:32;;;;;;;4.90;1.75;;;-2.30;99.90;;;;;;5074243;28;20183;-77
2024/01/09 00:37:58;;;;;;;5.88;1.67;;;-2.40;99.90;;;;;;5074112;28;20049;-81
2024/01/09 00:40:24;;;;;;;7.70;2.00;;;-2.40;99.90;;;;;;5073946;28;20102;-80
2024/01/09 00:42:49;;;;;;;5.32;2.45;;;-2.40;99.90;;;;;;5074130;28;20044;-79
2024/01/09 00:45:15;;;;;;;5.95;2.10;;;-2.40;99.90;;;;;;5072497;28;20052;-81
2024/01/09 00:47:41;;;;;;;4.40;1.75;;;-2.40;99.90;;;;;;5072947;28;20056;-81
2024/01/09 00:50:07;;;;;;;8.70;3.03;;;-2.40;99.90;;;;;;5073586;28;20124;-79
2024/01/09 00:52:32;;;;;;;6.82;2.47;;;-2.40;99.90;;;;;;5072316;28;20408;-81
2024/01/09 00:54:58;;;;;;;7.55;1.73;;;-2.40;99.90;;;;;;5072580;28;20061;-80
2024/01/09 00:57:24;;;;;;;6.75;2.33;;;-2.50;99.90;;;;;;5072383;28;20051;-78
2024/01/09 00:59:49;;;;;;;7.55;2.15;;;-2.50;99.90;;;;;;5072144;28;20102;-81
2024/01/09 01:02:15;;;;;;;5.22;1.98;;;-2.50;99.90;;;;;;5073784;28;20080;-76
2024/01/09 01:04:41;;;;;;;6.80;2.22;;;-2.50;99.90;;;;;;5073322;28;20052;-78
2024/01/09 01:07:06;;;;;;;7.70;2.47;;;-2.50;99.90;;;;;;5073709;28;20052;-78
2024/01/09 01:09:32;;;;;;;5.93;1.92;;;-2.50;99.90;;;;;;5073483;28;20120;-79
2024/01/09 01:11:58;;;;;;;7.32;2.15;;;-2.50;99.90;;;;;;5072173;28;20392;-81
2024/01/09 01:14:26;;;;;;;15.77;3.67;;;-2.50;99.90;;;;;;5073570;28;20088;-80
2024/01/09 01:16:52;;;;;;;5.88;2.05;;;-2.60;99.90;;;;;;5073636;28;20048;-80
2024/01/09 01:19:17;;;;;;;8.45;2.08;;;-2.50;99.90;;;;;;5072269;28;20053;-81
2024/01/09 01:21:43;;;;;;;11.35;2.03;;;-2.60;99.90;;;;;;5073844;28;20131;-81
2024/01/09 01:24:09;;;;;;;5.72;2.13;;;-2.50;99.90;;;;;;5072021;28;20044;-79
2024/01/09 01:26:35;;;;;;;6.82;2.30;;;-2.60;99.90;;;;;;5071980;28;20060;-81
2024/01/09 01:29:01;;;;;;;6.60;2.50;;;-2.60;99.90;;;;;;5072011;28;20052;-75
2024/01/09 01:31:26;;;;;;;5.22;2.53;;;-2.60;99.90;;;;;;5072663;28;20377;-79
2024/01/09 01:33:53;;;;;;;7.90;2.58;;;-2.60;99.90;;;;;;5071658;28;20047;-73
2024/01/09 01:36:19;;;;;;;6.40;2.22;;;-2.60;99.90;;;;;;5073319;28;20051;-79
2024/01/09 01:38:44;;;;;;;29.30;4.88;;;-2.60;99.90;;;;;;5054862;28;20052;-77
2024/01/09 01:41:10;;;;;;;5.90;2.78;;;-2.60;99.90;;;;;;5072887;28;20173;-75
2024/01/09 01:43:36;;;;;;;6.88;2.30;;;-2.60;99.90;;;;;;5072995;28;20076;-80
2024/01/09 01:46:03;;;;;;;7.72;2.28;;;-2.70;99.90;;;;;;5073225;28;20051;-78
2024/01/09 01:48:30;;;;;;;9.73;2.38;;;-2.70;99.90;;;;;;5072858;28;20426;-78
2024/01/09 01:50:56;;;;;;;8.27;2.35;;;-2.70;99.90;;;;;;5071298;28;20100;-80
2024/01/09 01:53:23;;;;;;;6.65;2.80;;;-2.70;99.90;;;;;;5072826;28;20044;-76
2024/01/09 01:55:48;;;;;;;6.53;2.60;;;-2.60;99.90;;;;;;5072597;28;20052;-78
2024/01/09 01:58:15;;;;;;;6.45;2.25;;;-2.60;99.90;;;;;;5071347;28;20377;-77
2024/01/09 02:00:42;;;;;;;4.90;2.53;;;-2.60;99.90;;;;;;5071090;28;20476;-81
2024/01/09 02:03:08;;;;;;;7.60;2.40;;;-2.60;99.90;;;;;;5071271;28;20446;-81
2024/01/09 02:05:35;;;;;;;5.88;2.13;;;-2.60;99.90;;;;;;5072419;28;20507;-81
2024/01/09 02:08:02;;;;;;;5.43;2.15;;;-2.60;99.90;;;;;;5070617;28;20045;-74
2024/01/09 02:10:28;;;;;;;9.65;2.63;;;-2.60;99.90;;;;;;5072280;28;20048;-81
2024/01/09 02:12:53;;;;;;;7.13;2.63;;;-2.60;99.90;;;;;;5072725;28;20041;-80
2024/01/09 02:15:19;;;;;;;9.88;2.38;;;-2.60;99.90;;;;;;5071523;28;20048;-78
2024/01/09 02:17:45;;;;;;;6.15;2.80;;;-2.60;99.90;;;;;;5072799;28;20053;-77
2024/01/09 02:20:11;;;;;;;4.68;2.33;;;-2.60;99.90;;;;;;5071218;28;20376;-76
2024/01/09 02:22:37;;;;;;;5.45;2.35;;;-2.60;99.90;;;;;;5072645;28;20217;-76
2024/01/09 02:25:03;;;;;;;6.70;2.78;;;-2.60;99.90;;;;;;5072194;28;20052;-81
2024/01/09 02:27:38;;;;;;;6.55;2.47;;;-2.60;99.90;;;;;;5072677;28;20048;-80
2024/01/09 02:30:04;;;;;;;4.65;1.95;;;-2.60;99.90;;;;;;5070521;28;20139;-81
2024/01/09 02:32:33;;;;;;;4.95;2.20;;;-2.60;99.90;;;;;;5071118;28;20407;-74
2024/01/09 02:34:59;;;;;;;7.07;2.17;;;-2.60;99.90;;;;;;5072197;28;20048;-80
2024/01/09 02:37:25;;;;;;;5.22;2.10;;;-2.60;99.90;;;;;;5070669;28;20045;-80
2024/01/09 02:39:50;;;;;;;6.72;2.33;;;-2.70;99.90;;;;;;5072133;28;20403;-71
2024/01/09 02:42:16;;;;;;;7.07;2.30;;;-2.70;99.90;;;;;;5070497;28;20044;-71
2024/01/09 02:44:42;;;;;;;5.78;2.05;;;-2.70;99.90;;;;;;5069994;28;20055;-74
2024/01/09 02:47:08;;;;;;;7.45;2.40;;;-2.70;99.90;;;;;;5071735;28;20454;-72
2024/01/09 02:49:35;;;;;;;7.25;2.33;;;-2.70;99.90;;;;;;5070241;28;20056;-72
2024/01/09 02:52:02;;;;;;;7.88;3.15;;;-2.80;99.90;;;;;;5069989;28;20515;-72
2024/01/09 02:54:28;;;;;;;6.63;3.05;;;-2.80;99.90;;;;;;5071162;28;20793;-75
2024/01/09 02:56:53;;;;;;;6.20;2.60;;;-2.80;99.90;;;;;;5070392;28;20063;-71
2024/01/09 02:59:19;;;;;;;5.75;1.80;;;-2.80;99.90;;;;;;5070254;28;20049;-74
2024/01/09 03:01:45;;;;;;;5.32;2.38;;;-2.90;99.90;;;;;;5071329;28;20562;-74
2024/01/09 03:04:10;;;;;;;5.95;2.33;;;-2.90;99.90;;;;;;5071902;28;20045;-77
2024/01/09 03:06:36;;;;;;;7.13;2.20;;;-2.90;99.90;;;;;;5069998;28;20307;-78
2024/01/09 03:09:02;;;;;;;7.43;2.15;;;-2.90;99.90;;;;;;5071466;28;20083;-73
2024/01/09 03:11:28;;;;;;;8.27;2.70;;;-2.90;99.90;;;;;;5071261;28;20049;-72
2024/01/09 03:13:54;;;;;;;8.07;2.63;;;-2.90;99.90;;;;;;5070903;28;20044;-74
2024/01/09 03:16:19;;;;;;;4.53;2.00;;;-3.00;99.90;;;;;;5071878;28;20049;-72
2024/01/09 03:18:45;;;;;;;11.25;2.78;;;-3.00;99.90;;;;;;5069895;28;20082;-80
2024/01/09 03:21:11;;;;;;;6.78;2.40;;;-3.00;99.90;;;;;;5069963;28;20049;-77
2024/01/09 03:23:37;;;;;;;5.75;2.50;;;-3.00;99.90;;;;;;5071508;28;20056;-71
2024/01/09 03:26:03;;;;;;;4.32;2.03;;;-3.00;99.90;;;;;;5071154;28;20045;-71
2024/01/09 03:28:29;;;;;;;6.95;2.30;;;-3.00;99.90;;;;;;5070875;28;20071;-75
2024/01/09 03:30:55;;;;;;;5.10;2.08;;;-3.00;99.90;;;;;;5072827;28;20048;-72
2024/01/09 03:33:20;;;;;;;6.88;2.50;;;-3.00;99.90;;;;;;5091221;28;20523;-76
2024/01/09 03:35:46;;;;;;;7.18;3.30;;;-3.00;99.90;;;;;;5091306;28;20554;-80
2024/01/09 03:38:12;;;;;;;10.93;2.65;;;-3.00;99.90;;;;;;5072892;28;20052;-75
2024/01/09 03:40:38;;;;;;;8.80;2.58;;;-3.00;99.90;;;;;;5091157;28;20040;-72
2024/01/09 03:43:06;;;;;;;7.55;3.03;;;-3.00;99.90;;;;;;5091121;28;20071;-75
2024/01/09 03:45:32;;;;;;;10.00;2.55;;;-3.00;99.90;;;;;;5091333;28;20112;-78
2024/01/09 03:47:58;;;;;;;6.90;2.70;;;-3.00;99.90;;;;;;5072662;28;20139;-77
2024/01/09 03:50:24;;;;;;;6.05;2.50;;;-3.00;99.90;;;;;;5090942;28;22341;-80
2024/01/09 03:52:49;;;;;;;6.55;2.78;;;-3.00;99.90;;;;;;5091378;28;20055;-79
2024/01/09 03:55:16;;;;;;;6.18;2.95;;;-3.00;99.90;;;;;;5091201;28;20052;-81
2024/01/09 03:57:44;;;;;;;8.00;3.00;;;-3.00;99.90;;;;;;5091056;28;20048;-78
2024/01/09 04:00:11;;;;;;;5.88;2.10;;;-3.00;99.90;;;;;;5073179;28;20063;-72
2024/01/09 04:02:37;;;;;;;5.93;2.90;;;-3.00;99.90;;;;;;5091066;28;20102;-74
2024/01/09 04:05:03;;;;;;;5.45;2.63;;;-3.00;99.90;;;;;;5090647;28;20369;-74
2024/01/09 04:07:29;;;;;;;5.60;2.80;;;-3.00;99.90;;;;;;5091091;28;20120;-71
2024/01/09 04:09:55;;;;;;;7.10;2.80;;;-2.90;99.90;;;;;;5090930;28;20127;-73
2024/01/09 04:12:20;;;;;;;5.32;2.65;;;-2.90;99.90;;;;;;5072786;28;20098;-78
2024/01/09 04:14:46;;;;;;;5.18;2.28;;;-2.90;99.90;;;;;;5091111;28;20113;-80
2024/01/09 04:17:12;;;;;;;11.27;3.53;;;-2.90;99.90;;;;;;5091139;28;20044;-79
2024/01/09 04:19:38;;;;;;;5.43;2.33;;;-2.90;99.90;;;;;;5091136;28;20051;-77
2024/01/09 04:22:05;;;;;;;6.00;2.28;;;-2.90;99.90;;;;;;5090927;28;20052;-80
2024/01/09 04:24:32;;;;;;;6.82;2.42;;;-2.90;99.90;;;;;;5091013;28;20048;-79
2024/01/09 04:26:58;;;;;;;6.88;2.97;;;-2.90;99.90;;;;;;5072631;28;20048;-76
2024/01/09 04:29:25;;;;;;;7.35;2.95;;;-2.90;99.90;;;;;;5055479;28;20048;-80
2024/01/09 04:31:50;;;;;;;5.78;2.15;;;-2.90;99.90;;;;;;5090303;28;20056;-80
2024/01/09 04:34:16;;;;;;;7.90;2.22;;;-2.90;99.90;;;;;;5072629;28;20074;-76
2024/01/09 04:36:42;;;;;;;7.15;2.53;;;-2.90;99.90;;;;;;5090484;28;20499;-80
2024/01/09 04:39:07;;;;;;;7.53;3.03;;;-2.90;99.90;;;;;;5075180;28;20113;-81
2024/01/09 04:41:33;;;;;;;6.65;2.83;;;-2.90;99.90;;;;;;5059190;28;20091;-74
2024/01/09 04:43:59;;;;;;;7.25;2.85;;;-2.90;99.90;;;;;;5094346;28;20117;-75
2024/01/09 04:46:24;;;;;;;6.93;2.42;;;-2.90;99.90;;;;;;5094289;28;20117;-80
2024/01/09 04:48:50;;;;;;;6.72;2.97;;;-2.90;99.90;;;;;;5094172;28;20039;-81
2024/01/09 04:51:16;;;;;;;6.13;2.58;;;-2.90;99.90;;;;;;5093635;28;20444;-80
2024/01/09 04:53:41;;;;;;;8.82;3.30;;;-2.90;99.90;;;;;;5094188;28;20086;-76
2024/01/09 04:56:08;;;;;;;9.75;3.28;;;-2.90;99.90;;;;;;5094136;28;20403;-79
2024/01/09 04:58:34;;;;;;;6.45;2.70;;;-2.90;99.90;;;;;;5059359;28;20052;-75
2024/01/09 05:00:59;;;;;;;9.80;3.10;;;-3.00;99.90;;;;;;5093688;28;20047;-76
2024/01/09 05:03:25;;;;;;;7.25;2.65;;;-3.00;99.90;;;;;;5094240;28;20079;-80
2024/01/09 05:05:51;;;;;;;7.60;3.17;;;-3.00;99.90;;;;;;5094211;28;20083;-80
2024/01/09 05:10:52;;;;;;;8.73;2.95;;;-3.00;99.90;;;;;;5041495;23;20106;-81
2024/01/09 05:13:18;;;;;;;7.10;2.88;;;-3.00;99.90;;;;;;5013789;28;20054;-80
2024/01/09 05:15:43;;;;;;;6.20;3.05;;;-3.00;99.90;;;;;;5013842;28;20449;-78
2024/01/09 05:18:09;;;;;;;6.95;2.90;;;-3.00;99.90;;;;;;5013949;28;20125;-80
2024/01/09 05:20:35;;;;;;;7.80;2.70;;;-3.00;99.90;;;;;;5013511;28;20069;-80
2024/01/09 05:23:00;;;;;;;8.82;2.47;;;-3.10;99.90;;;;;;4996063;28;20054;-78
2024/01/09 05:25:26;;;;;;;6.47;3.22;;;-3.10;99.90;;;;;;5014115;28;20052;-80
2024/01/09 05:27:51;;;;;;;6.25;3.05;;;-3.10;99.90;;;;;;4995723;28;20046;-80
2024/01/09 05:30:18;;;;;;;6.65;2.85;;;-3.10;99.90;;;;;;4995691;28;20053;-78
2024/01/09 05:32:44;;;;;;;7.45;3.47;;;-3.10;99.90;;;;;;4995816;28;20061;-73
2024/01/09 05:35:09;;;;;;;6.20;2.55;;;-3.20;99.90;;;;;;4995897;28;20105;-81
2024/01/09 05:37:35;;;;;;;5.70;2.55;;;-3.20;99.90;;;;;;4995729;28;20052;-79
2024/01/09 05:40:01;;;;;;;5.00;2.58;;;-3.20;99.90;;;;;;5013598;28;20490;-80
2024/01/09 05:42:28;;;;;;;8.20;3.47;;;-3.20;99.90;;;;;;5012986;28;20064;-79
2024/01/09 05:44:54;;;;;;;7.03;2.83;;;-3.20;99.90;;;;;;5013265;28;20808;-76
2024/01/09 05:47:19;;;;;;;7.65;2.90;;;-3.30;99.90;;;;;;5012892;28;20060;-79
2024/01/09 05:49:45;;;;;;;7.28;3.15;;;-3.30;99.90;;;;;;5013063;28;20465;-80
2024/01/09 05:52:11;;;;;;;8.13;3.45;;;-3.30;99.90;;;;;;4979231;28;20061;-80
2024/01/09 05:54:36;;;;;;;13.68;3.15;;;-3.30;99.90;;;;;;5012708;28;20049;-80
2024/01/09 05:57:03;;;;;;;6.95;2.92;;;-3.40;99.90;;;;;;4995691;28;20123;-76
2024/01/09 05:59:29;;;;;;;7.95;3.35;;;-3.30;99.90;;;;;;5013064;28;20516;-78
2024/01/09 06:01:54;;;;;;;8.75;2.97;;;-3.40;99.90;;;;;;4995762;28;20049;-79
2024/01/09 06:04:20;;;;;;;9.27;4.40;;;-3.40;99.90;;;;;;5013223;28;20129;-78
2024/01/09 06:06:46;;;;;;;7.45;3.00;;;-3.40;99.90;;;;;;4995787;28;20065;-81
2024/01/09 06:09:12;;;;;;;8.30;3.00;;;-3.40;99.90;;;;;;4994828;28;20506;-78
2024/01/09 06:11:38;;;;;;;9.73;3.78;;;-3.50;99.90;;;;;;5012415;28;20503;-77
2024/01/09 06:14:04;;;;;;;7.90;3.90;;;-3.50;99.90;;;;;;5012564;28;20050;-79
2024/01/09 06:16:29;;;;;;;7.57;2.78;;;-3.50;99.90;;;;;;5012849;28;20050;-79
2024/01/09 06:18:55;;;;;;;8.02;3.63;;;-3.60;99.90;;;;;;5012734;28;20176;-77
2024/01/09 06:21:21;;;;;;;10.93;2.97;;;-3.60;99.90;;;;;;4995226;28;20061;-79
2024/01/09 06:23:47;;;;;;;7.25;3.08;;;-3.60;99.90;;;;;;4994625;28;20501;-80
2024/01/09 06:26:13;;;;;;;8.77;3.67;;;-3.60;99.90;;;;;;5012555;28;20050;-79
2024/01/09 06:28:39;;;;;;;10.65;2.85;;;-3.70;99.90;;;;;;4994856;28;20049;-79
2024/01/09 06:31:05;;;;;;;6.90;2.75;;;-3.70;99.90;;;;;;4994493;28;20704;-73
2024/01/09 06:33:30;;;;;;;8.05;3.10;;;-3.70;99.90;;;;;;4994847;28;20054;-79
2024/01/09 06:35:56;;;;;;;8.88;3.65;;;-3.70;99.90;;;;;;5012512;28;20165;-75
2024/01/09 06:38:22;;;;;;;7.47;3.30;;;-3.80;99.90;;;;;;4994401;28;20390;-78
2024/01/09 06:40:47;;;;;;;7.35;3.13;;;-3.80;99.90;;;;;;4994333;28;20104;-74
2024/01/09 06:43:13;;;;;;;7.80;3.13;;;-3.80;99.90;;;;;;4994089;28;20046;-78
2024/01/09 06:45:39;;;;;;;15.93;5.15;;;-3.80;99.90;;;;;;4994380;28;20785;-80
2024/01/09 06:48:05;;;;;;;9.55;3.20;;;-3.80;99.90;;;;;;4994775;28;20046;-78
2024/01/09 06:50:31;;;;;;;8.18;4.00;;;-3.80;99.90;;;;;;5011914;28;20568;-80
2024/01/09 06:52:56;;;;;;;4.95;2.55;;;-3.90;99.90;;;;;;5012181;28;20056;-81
2024/01/09 06:55:22;;;;;;;7.20;3.28;;;-3.90;99.90;;;;;;4994509;28;20050;-79
2024/01/09 06:57:48;;;;;;;10.00;4.07;;;-3.90;99.90;;;;;;5012374;28;20539;-79
2024/01/09 07:00:15;;;;;;;11.07;4.03;;;-3.90;99.90;;;;;;4994481;28;20493;-74
2024/01/09 07:02:40;;;;;;;8.63;3.70;;;-3.90;99.90;;;;;;4994418;28;20501;-81
2024/01/09 07:05:06;;;;;;;8.20;3.63;;;-4.00;99.90;;;;;;5012128;28;20077;-78
2024/01/09 07:07:32;;;;;;;10.00;4.03;;;-4.00;99.90;;;;;;4978103;28;20045;-80
2024/01/09 07:09:58;;;;;;;8.30;3.35;;;-4.00;99.90;;;;;;4993992;28;20564;-78
2024/01/09 07:12:23;;;;;;;7.32;3.05;;;-4.00;99.90;;;;;;4977863;28;20054;-79
2024/01/09 07:14:49;;;;;;;6.38;2.95;;;-4.00;99.90;;;;;;5011763;28;20038;-79
2024/01/09 07:17:15;;;;;;;8.88;3.35;;;-4.10;99.90;;;;;;5011669;28;20497;-80
2024/01/09 07:19:41;;;;;;;8.65;3.78;;;-4.10;99.90;;;;;;5011643;28;20141;-79
2024/01/09 07:22:07;;;;;;;9.05;3.33;;;-4.00;99.90;;;;;;4993941;28;20108;-80
2024/01/09 07:24:33;;;;;;;10.73;3.95;;;-4.00;99.90;;;;;;4994117;28;20061;-80
2024/01/09 07:26:59;;;;;;;6.32;3.33;;;-4.00;99.90;;;;;;4994074;28;20046;-78
2024/01/09 07:29:25;;;;;;;11.23;4.68;;;-4.00;99.90;;;;;;5011360;28;20053;-78
2024/01/09 07:31:50;;;;;;;6.63;3.42;;;-4.00;99.90;;;;;;4993612;28;20054;-81
2024/01/09 07:34:16;;;;;;;7.63;2.97;;;-4.00;99.90;;;;;;5011451;28;20053;-80
2024/01/09 07:36:42;;;;;;;7.20;3.25;;;-4.00;99.90;;;;;;5011683;28;20050;-76
2024/01/09 07:39:09;;;;;;;9.57;3.63;;;-4.00;99.90;;;;;;5011208;28;20046;-80
2024/01/09 07:41:35;;;;;;;7.85;3.45;;;-4.00;99.90;;;;;;5011490;28;20061;-80
2024/01/09 07:44:02;;;;;;;8.60;3.85;;;-4.00;99.90;;;;;;5011624;28;20136;-77
2024/01/09 07:46:28;;;;;;;8.13;3.30;;;-4.00;99.90;;;;;;4993937;28;20128;-77
2024/01/09 07:48:54;;;;;;;7.45;3.25;;;-4.00;99.90;;;;;;4993561;28;20089;-77
2024/01/09 07:51:19;;;;;;;6.90;3.55;;;-4.00;99.90;;;;;;4977664;28;20053;-80
2024/01/09 07:53:45;;;;;;;8.30;3.70;;;-4.00;99.90;;;;;;5011216;28;20797;-78
2024/01/09 07:56:18;;;;;;;10.50;3.85;;;-4.00;99.90;;;;;;4993530;28;20467;-80
2024/01/09 07:58:44;;;;;;;6.00;2.90;;;-4.00;99.90;;;;;;4994115;28;20061;-78
2024/01/09 08:01:14;;;;;;;12.55;4.28;;;-4.00;99.90;;;;;;5011503;28;20405;-77
2024/01/09 08:03:40;;;;;;;7.70;4.00;;;-4.00;99.90;;;;;;5011434;28;20050;-80
2024/01/09 08:06:16;;;;;;;9.35;4.70;;;-3.90;99.90;;;;;;5011582;28;20097;-79
2024/01/09 08:08:42;;;;;;;8.57;2.90;;;-3.90;99.90;;;;;;5012150;28;20300;-76
2024/01/09 08:11:08;;;;;;;6.97;2.88;;;-3.90;99.90;;;;;;5011371;28;20065;-80
2024/01/09 08:13:35;;;;;;;7.55;3.53;;;-3.80;99.90;;;;;;5012860;28;20052;-76
2024/01/09 08:16:01;;;;;;;7.72;3.05;;;-3.80;99.90;;;;;;5015156;28;20065;-80
2024/01/09 08:18:27;;;;;;;7.38;2.97;;;-3.70;99.90;;;;;;5014696;28;20069;-78
2024/01/09 08:20:53;;;;;;;6.93;2.83;;;-3.70;99.90;;;;;;5015008;28;20054;-80
2024/01/09 08:23:19;;;;;;;7.57;2.88;;;-3.70;99.90;;;;;;5015251;28;20089;-80
2024/01/09 08:25:45;;;;;;;7.13;2.47;;;-3.60;99.90;;;;;;4996853;28;20084;-81
2024/01/09 08:28:11;;;;;;;9.55;2.88;;;-3.60;99.90;;;;;;4997359;28;20100;-81
2024/01/09 08:30:36;;;;;;;6.82;3.03;;;-3.60;99.90;;;;;;5014748;28;20042;-76
2024/01/09 08:33:02;;;;;;;6.47;3.60;;;-3.50;99.90;;;;;;5014929;28;20077;-78
2024/01/09 08:35:28;;;;;;;7.45;3.50;;;-3.40;99.90;;;;;;4997279;28;20058;-77
2024/01/09 08:37:54;;;;;;;7.60;3.42;;;-3.40;99.90;;;;;;5014453;28;20125;-80
2024/01/09 08:40:19;;;;;;;7.93;2.92;;;-3.30;99.90;;;;;;5014579;28;20049;-80
2024/01/09 08:42:45;;;;;;;9.20;3.53;;;-3.20;99.90;;;;;;5014728;28;20050;-79
2024/01/09 08:45:15;;;;;;;6.30;3.40;;;-3.20;99.90;;;;;;5014739;28;20468;-81
2024/01/09 08:47:41;;;;;;;9.48;3.70;;;-3.10;99.90;;;;;;5014615;28;20445;-75
2024/01/09 08:50:07;;;;;;;7.32;3.80;;;-3.00;99.90;;;;;;4998219;28;20497;-79
2024/01/09 08:52:34;;;;;;;5.65;2.90;;;-3.00;99.90;;;;;;5014757;28;20100;-80
2024/01/09 08:55:00;;;;;;;7.55;3.22;;;-2.90;99.90;;;;;;5014372;28;20088;-80
2024/01/09 08:57:26;;;;;;;9.23;3.40;;;-2.80;99.90;;;;;;5015480;28;20058;-82
2024/01/09 08:59:52;;;;;;;6.75;2.85;;;-2.70;99.90;;;;;;4998667;28;20061;-73
2024/01/09 09:02:18;;;;;;;8.75;3.15;;;-2.60;99.90;;;;;;5014108;28;20058;-75
2024/01/09 09:04:44;;;;;;;9.15;3.20;;;-2.50;99.90;;;;;;5014483;28;20160;-74
2024/01/09 09:07:10;;;;;;;7.65;3.25;;;-2.50;99.90;;;;;;5013910;28;20542;-72
2024/01/09 09:09:35;;;;;;;7.30;3.28;;;-2.30;99.90;;;;;;5013419;28;20049;-74
2024/01/09 09:12:02;;;;;;;7.45;3.25;;;-2.30;99.90;;;;;;5013808;28;20053;-79
2024/01/09 09:14:28;;;;;;;9.45;3.58;;;-2.10;99.90;;;;;;5013888;28;20200;-75
2024/01/09 09:16:53;;;;;;;6.22;3.28;;;-2.00;99.90;;;;;;4996109;28;20150;-77
2024/01/09 09:19:22;;;;;;;7.50;3.45;;;-1.90;99.90;;;;;;5013829;28;20046;-76
2024/01/09 09:21:49;;;;;;;14.38;5.25;;;-1.80;99.90;;;;;;4980308;28;20053;-75
2024/01/09 09:24:15;;;;;;;7.40;3.70;;;-1.70;99.90;;;;;;4995627;28;20089;-76
2024/01/09 09:26:41;;;;;;;9.65;3.15;;;-1.60;99.90;;;;;;4979750;28;20089;-74
2024/01/09 09:29:06;;;;;;;8.50;2.80;;;-1.40;99.90;;;;;;4995915;28;20049;-76
2024/01/09 09:31:32;;;;;;;8.57;3.13;;;-1.30;99.90;;;;;;4995885;28;20065;-79
2024/01/09 09:33:58;;;;;;;10.07;3.42;;;-1.20;99.90;;;;;;5013881;28;20473;-81
2024/01/09 09:36:24;;;;;;;6.97;3.13;;;-1.20;99.90;;;;;;5013471;28;20050;-79
2024/01/09 09:38:53;;;;;;;8.27;3.33;;;-1.10;99.90;;;;;;5013451;28;20121;-78
2024/01/09 09:41:20;;;;;;;7.70;3.50;;;-1.00;99.90;;;;;;4995709;28;20085;-78
2024/01/09 09:43:52;;;;;;;8.15;3.15;;;-0.90;99.90;;;;;;5013132;28;20453;-79
2024/01/09 09:46:26;;;;;;;5.82;2.80;;;-0.90;99.90;;;;;;4995493;28;20052;-81
2024/01/09 09:48:53;;;;;;;6.85;3.30;;;-0.80;99.90;;;;;;5013440;28;20094;-77
2024/01/09 09:51:21;;;;;;;7.47;3.47;;;-0.80;99.90;;;;;;5013399;28;20050;-78
2024/01/09 09:53:47;;;;;;;7.03;3.08;;;-0.70;99.90;;;;;;5013373;28;20392;-81
2024/01/09 09:56:13;;;;;;;8.18;3.58;;;-0.60;99.90;;;;;;4995234;28;20088;-81
2024/01/09 09:58:40;;;;;;;8.00;3.20;;;-0.40;99.90;;;;;;5013255;28;20129;-80
2024/01/09 10:01:10;;;;;;;6.65;3.22;;;-0.30;99.90;;;;;;4995315;28;20391;-78
2024/01/09 10:03:42;;;;;;;6.80;3.03;;;-0.20;99.90;;;;;;5012668;28;20525;-78
2024/01/09 10:06:09;;;;;;;8.73;2.78;;;0.00;99.90;;;;;;5013153;28;20444;-78
2024/01/09 10:11:32;;;;;;;9.48;3.22;;;0.60;99.90;;;;;;4895453;29;20112;-82
2024/01/09 10:13:58;;;;;;;5.68;2.83;;;1.00;99.90;;;;;;4897619;29;20452;-80
2024/01/09 10:16:24;;;;;;;5.78;2.42;;;1.00;99.90;;;;;;4897415;29;20129;-79
2024/01/09 10:18:54;;;;;;;6.05;2.78;;;0.90;99.90;;;;;;4897525;29;20053;-81
2024/01/09 10:21:19;;;;;;;6.15;2.92;;;1.00;99.90;;;;;;4897019;29;20497;-81
2024/01/09 10:23:45;;;;;;;7.57;2.63;;;1.20;99.90;;;;;;4880400;29;20053;-78
2024/01/09 10:26:11;;;;;;;7.70;2.80;;;1.50;99.90;;;;;;4897572;29;20485;-77
2024/01/09 10:28:38;;;;;;;6.07;2.45;;;1.90;99.90;;;;;;4880473;29;20060;-75
2024/01/09 10:31:06;;;;;;;5.13;2.70;;;1.80;99.90;;;;;;4896833;29;20413;-77
2024/01/09 10:33:32;;;;;;;4.78;2.20;;;1.90;99.90;;;;;;4880530;29;20116;-75
2024/01/09 10:35:58;;;;;;;6.75;2.80;;;2.30;99.90;;;;;;4896260;29;20060;-77
2024/01/09 10:38:25;;;;;;;5.53;2.45;;;2.90;99.90;;;;;;4879937;29;20056;-74
2024/01/09 10:40:56;;;;;;;4.97;2.33;;;3.40;99.90;;;;;;4880095;29;20056;-77
2024/01/09 10:43:25;;;;;;;5.38;2.30;;;3.30;99.90;;;;;;4897066;29;20131;-80
2024/01/09 10:45:52;;;;;;;5.78;3.08;;;3.10;99.90;;;;;;4880169;29;20087;-82
2024/01/09 10:48:21;;;;;;;4.68;2.15;;;3.10;99.90;;;;;;4880193;29;20052;-80
2024/01/09 10:50:50;;;;;;;5.25;2.45;;;2.70;99.90;;;;;;4897328;29;20056;-83
2024/01/09 10:53:16;;;;;;;5.70;2.17;;;2.80;99.90;;;;;;4897137;29;20053;-76
2024/01/09 10:55:44;;;;;;;4.85;1.98;;;3.20;99.90;;;;;;4896818;29;20041;-80
2024/01/09 10:58:11;;;;;;;4.65;2.00;;;3.40;99.90;;;;;;4879755;29;20061;-78
2024/01/09 11:00:38;;;;;;;5.93;2.05;;;3.60;99.90;;;;;;4879479;29;20109;-78
2024/01/09 11:03:04;;;;;;;8.63;2.78;;;3.30;99.90;;;;;;4896703;29;20417;-76
2024/01/09 11:05:30;;;;;;;4.93;2.22;;;3.10;99.90;;;;;;4896910;29;20055;-83
2024/01/09 11:07:58;;;;;;;4.93;1.70;;;3.30;99.90;;;;;;4879516;29;20048;-77
2024/01/09 11:10:25;;;;;;;5.80;2.28;;;3.70;99.90;;;;;;4895874;29;20292;-78
2024/01/09 11:12:53;;;;;;;7.70;2.22;;;3.90;99.70;;;;;;4896809;29;20060;-80
2024/01/09 11:15:36;;;;;;;4.18;1.60;;;4.10;99.80;;;;;;4896377;29;20059;-73
2024/01/09 11:18:08;;;;;;;5.70;1.48;;;4.20;97.60;;;;;;4896455;29;20147;-77
2024/01/09 11:20:34;;;;;;;5.32;1.40;;;4.10;98.00;;;;;;4896453;29;20052;-77
2024/01/09 11:23:00;;;;;;;9.63;2.08;;;4.30;98.10;;;;;;4879637;29;20060;-81
2024/01/09 11:25:31;;;;;;;4.80;1.88;;;4.50;98.30;;;;;;4897251;29;20100;-73
2024/01/09 11:27:57;;;;;;;4.88;2.10;;;5.50;99.10;;;;;;4896369;29;20067;-72
2024/01/09 11:30:27;;;;;;;6.20;2.00;;;6.00;97.30;;;;;;4896319;29;20091;-80
2024/01/09 11:32:53;;;;;;;5.72;2.15;;;6.30;96.70;;;;;;4864519;29;20147;-74
2024/01/09 11:35:20;;;;;;;7.85;3.03;;;6.40;96.40;;;;;;4896224;29;20045;-76
2024/01/09 11:37:51;;;;;;;5.80;1.98;;;6.60;96.30;;;;;;4879184;29;20065;-83
2024/01/09 11:40:19;;;;;;;6.07;2.10;;;7.00;95.50;;;;;;4896050;29;20493;-83
2024/01/09 11:42:48;;;;;;;4.68;1.92;;;7.00;95.40;;;;;;4896342;29;20053;-75
2024/01/09 11:45:25;;;;;;;5.18;2.20;;;7.30;95.30;;;;;;4895850;29;20500;-76
2024/01/09 11:47:53;;;;;;;7.53;2.00;;;7.90;93.20;;;;;;4881692;29;20124;-79
2024/01/09 11:50:19;;;;;;;4.00;1.52;;;8.30;93.80;;;;;;4868125;29;20181;-79
2024/01/09 11:52:48;;;;;;;5.88;1.75;;;8.60;92.10;;;;;;4899964;29;20225;-77
2024/01/09 11:55:14;;;;;;;5.93;1.80;;;8.70;90.80;;;;;;4883554;29;20080;-75
2024/01/09 11:57:41;;;;;;;6.95;1.73;;;8.90;91.60;;;;;;4868220;29;20511;-72
2024/01/09 12:00:10;;;;;;;3.58;1.58;;;8.90;90.90;;;;;;4900025;29;20048;-72
2024/01/09 12:02:36;;;;;;;6.45;1.90;;;9.10;88.60;;;;;;4899820;29;20045;-71
2024/01/09 12:05:04;;;;;;;3.90;1.45;;;8.40;90.20;;;;;;4899778;29;20673;-74
2024/01/09 12:07:31;;;;;;;4.35;1.92;;;8.20;90.50;;;;;;4899632;29;20112;-72
2024/01/09 12:09:57;;;;;;;4.32;1.67;;;7.80;91.00;;;;;;4899045;29;20416;-74
2024/01/09 12:12:24;;;;;;;4.95;1.95;;;7.80;92.10;;;;;;4899616;29;20060;-76
2024/01/09 12:15:00;;;;;;;3.30;1.40;;;7.70;92.00;;;;;;4899689;29;20045;-72
2024/01/09 12:17:33;;;;;;;4.75;1.80;;;7.90;90.10;;;;;;4882334;29;20060;-73
2024/01/09 12:20:00;;;;;;;4.03;1.80;;;8.10;91.70;;;;;;4882639;29;20044;-72
2024/01/09 12:22:26;;;;;;;3.72;1.48;;;8.60;91.40;;;;;;4899645;29;20059;-77
2024/01/09 12:24:54;;;;;;;4.38;1.95;;;9.30;90.30;;;;;;4898886;29;20056;-76
2024/01/09 12:27:23;;;;;;;5.22;2.92;;;10.00;89.60;;;;;;4898964;29;20049;-75
2024/01/09 12:29:53;;;;;;;4.88;1.98;;;10.80;87.30;;;;;;4882263;29;20083;-76
2024/01/09 12:32:22;;;;;;;4.38;1.90;;;11.40;85.60;;;;;;4899216;29;20056;-74
2024/01/09 12:34:48;;;;;;;4.28;1.80;;;11.90;84.50;;;;;;4882165;29;20087;-78
2024/01/09 12:37:14;;;;;;;4.15;1.83;;;12.70;83.10;;;;;;4899113;29;20068;-75
2024/01/09 12:39:40;;;;;;;3.42;1.40;;;13.00;79.30;;;;;;4881874;29;20497;-75
2024/01/09 12:42:07;;;;;;;6.18;1.90;;;13.00;78.70;;;;;;4881976;29;20139;-76
2024/01/09 12:44:33;;;;;;;3.80;1.73;;;13.10;77.10;;;;;;4899489;29;20044;-77
2024/01/09 12:47:00;;;;;;;4.90;1.67;;;13.20;76.10;;;;;;4898885;29;20521;-76
2024/01/09 12:49:26;;;;;;;3.95;1.90;;;13.20;74.30;;;;;;4898871;29;20088;-77